Time;durP1;ratioP1;P1;durP2;ratioP2;P2;SDS_P1;SDS_P2;PMS_P1;PMS_P2;Temp;Humidity;BMP_temperature;BMP_pressure;BME280_temperature;BME280_humidity;BME280_pressure;Samples;Min_cycle;Max_cycle;Signal;HPM_P1;HPM_P2
2022/07/18 00:02:03;;;;;;;3.97;2.93;;;14.80;99.90;;;;;;5038731;28;20198;-50
2022/07/18 00:04:31;;;;;;;3.83;2.60;;;14.70;99.90;;;;;;5063477;28;20227;-51
2022/07/18 00:06:58;;;;;;;3.43;2.33;;;14.70;99.90;;;;;;5060363;28;20619;-55
2022/07/18 00:09:25;;;;;;;2.60;2.20;;;14.70;99.90;;;;;;5064398;28;20198;-50
2022/07/18 00:11:53;;;;;;;2.80;2.60;;;14.80;99.90;;;;;;5055019;28;20289;-53
2022/07/18 00:14:21;;;;;;;2.47;2.10;;;14.90;99.90;;;;;;5062532;28;20214;-55
2022/07/18 00:16:48;;;;;;;2.10;1.90;;;14.90;99.90;;;;;;5043314;28;20234;-55
2022/07/18 00:19:16;;;;;;;3.30;1.90;;;14.90;99.90;;;;;;5061805;28;20190;-54
2022/07/18 00:21:44;;;;;;;5.77;2.40;;;14.90;99.90;;;;;;5063463;28;20592;-54
2022/07/18 00:24:11;;;;;;;1.97;1.83;;;15.00;99.90;;;;;;5060722;28;20193;-50
2022/07/18 00:26:39;;;;;;;2.20;2.00;;;15.00;99.90;;;;;;5057016;28;20238;-50
2022/07/18 00:29:06;;;;;;;3.00;1.80;;;15.00;99.90;;;;;;5060018;28;20196;-51
2022/07/18 00:31:33;;;;;;;2.37;2.17;;;14.90;99.90;;;;;;5048064;28;20570;-53
2022/07/18 00:34:00;;;;;;;2.20;2.00;;;14.90;99.90;;;;;;5058807;28;20730;-52
2022/07/18 00:36:27;;;;;;;2.63;2.37;;;14.80;99.90;;;;;;5063799;28;20222;-54
2022/07/18 00:38:56;;;;;;;2.50;2.30;;;14.70;99.90;;;;;;5059728;28;20548;-51
2022/07/18 00:41:24;;;;;;;2.40;2.20;;;14.70;99.90;;;;;;5056119;28;20208;-53
2022/07/18 00:43:50;;;;;;;2.37;2.13;;;14.70;99.90;;;;;;5061059;28;20191;-53
2022/07/18 00:46:21;;;;;;;2.00;1.80;;;14.80;99.90;;;;;;5045513;28;20230;-54
2022/07/18 00:48:48;;;;;;;2.57;2.37;;;14.80;99.90;;;;;;5061376;28;20686;-55
2022/07/18 00:51:16;;;;;;;1.93;1.83;;;14.80;99.90;;;;;;5061710;28;20205;-51
2022/07/18 00:53:43;;;;;;;2.50;1.77;;;14.70;99.90;;;;;;5062075;28;20223;-50
2022/07/18 00:56:12;;;;;;;2.13;1.87;;;14.70;99.90;;;;;;5060627;28;21028;-50
2022/07/18 00:58:39;;;;;;;2.30;2.10;;;14.60;99.90;;;;;;5056610;28;20206;-54
2022/07/18 01:03:51;;;;;;;2.07;1.90;;;14.60;99.90;;;;;;5059857;28;20408;-53
2022/07/18 01:06:18;;;;;;;1.97;1.87;;;14.60;99.90;;;;;;5062045;28;20229;-53
2022/07/18 01:08:45;;;;;;;2.53;1.93;;;14.60;99.90;;;;;;5062168;28;20257;-54
2022/07/18 01:11:14;;;;;;;2.37;2.10;;;14.60;99.90;;;;;;5060502;28;20945;-53
2022/07/18 01:13:41;;;;;;;2.33;2.10;;;14.60;99.90;;;;;;5054868;28;20237;-52
2022/07/18 01:16:08;;;;;;;2.83;2.07;;;14.60;99.90;;;;;;5058620;28;20235;-52
2022/07/18 01:18:35;;;;;;;1.90;1.70;;;14.50;99.90;;;;;;5047150;28;20206;-53
2022/07/18 01:21:04;;;;;;;3.53;2.40;;;14.50;99.90;;;;;;5058262;28;20201;-54
2022/07/18 01:23:31;;;;;;;2.93;2.20;;;14.40;99.90;;;;;;5062622;28;20203;-53
2022/07/18 01:25:58;;;;;;;2.37;2.17;;;14.50;99.90;;;;;;5059442;28;20222;-52
2022/07/18 01:28:25;;;;;;;2.10;1.90;;;14.50;99.90;;;;;;5056118;28;20205;-54
2022/07/18 01:30:52;;;;;;;2.17;1.97;;;14.40;99.90;;;;;;5060510;28;20214;-53
2022/07/18 01:33:18;;;;;;;2.70;1.83;;;14.40;99.90;;;;;;5045485;28;20198;-53
2022/07/18 01:35:45;;;;;;;2.20;1.93;;;14.30;99.90;;;;;;5061451;28;20691;-52
2022/07/18 01:38:13;;;;;;;2.30;2.10;;;14.30;99.90;;;;;;5060512;28;20191;-54
2022/07/18 01:40:41;;;;;;;2.13;1.93;;;14.20;99.90;;;;;;5062918;28;20605;-55
2022/07/18 01:43:08;;;;;;;2.20;2.00;;;14.30;99.90;;;;;;5052284;28;20211;-52
2022/07/18 01:45:35;;;;;;;2.83;2.30;;;14.30;99.90;;;;;;5062632;28;20579;-55
2022/07/18 01:48:02;;;;;;;1.90;1.80;;;14.30;99.90;;;;;;5040597;28;20257;-52
2022/07/18 01:50:29;;;;;;;2.70;1.90;;;14.30;99.90;;;;;;5062388;28;20679;-55
2022/07/18 01:52:56;;;;;;;2.70;1.97;;;14.30;99.90;;;;;;5058401;28;20206;-54
2022/07/18 01:55:25;;;;;;;2.37;1.73;;;14.20;99.90;;;;;;5062153;28;20233;-51
2022/07/18 01:57:51;;;;;;;1.73;1.50;;;14.20;99.90;;;;;;5060576;28;20195;-53
2022/07/18 02:00:18;;;;;;;2.23;2.03;;;14.10;99.90;;;;;;5054597;28;20207;-54
2022/07/18 02:02:45;;;;;;;2.20;2.00;;;14.10;99.90;;;;;;5056055;28;20195;-54
2022/07/18 02:05:12;;;;;;;2.10;1.90;;;14.10;99.90;;;;;;5050360;28;20206;-51
2022/07/18 02:07:42;;;;;;;2.73;1.80;;;14.10;99.90;;;;;;5062596;28;20250;-55
2022/07/18 02:10:11;;;;;;;2.23;2.03;;;14.10;99.90;;;;;;5059835;28;20252;-49
2022/07/18 02:12:39;;;;;;;2.60;1.70;;;14.10;99.90;;;;;;5062795;28;20534;-53
2022/07/18 02:15:08;;;;;;;2.20;2.00;;;14.10;99.90;;;;;;5051682;28;20218;-53
2022/07/18 02:17:35;;;;;;;2.20;2.00;;;14.10;99.90;;;;;;5062868;28;20236;-51
2022/07/18 02:20:03;;;;;;;5.00;2.37;;;14.00;99.90;;;;;;5042386;28;20210;-53
2022/07/18 02:22:29;;;;;;;3.13;2.10;;;14.00;99.90;;;;;;5062432;28;20206;-54
2022/07/18 02:24:56;;;;;;;2.50;2.30;;;14.00;99.90;;;;;;5058521;28;20218;-51
2022/07/18 02:27:23;;;;;;;3.33;2.10;;;14.00;99.90;;;;;;5065966;28;20209;-54
2022/07/18 02:29:52;;;;;;;2.53;2.10;;;14.00;99.90;;;;;;5063936;28;20209;-54
2022/07/18 02:32:19;;;;;;;4.30;2.13;;;14.00;99.90;;;;;;5057763;28;20229;-53
2022/07/18 02:34:46;;;;;;;2.40;2.00;;;14.00;99.90;;;;;;5046626;28;20218;-54
2022/07/18 02:37:14;;;;;;;1.80;1.70;;;14.00;99.90;;;;;;5063173;28;20269;-50
2022/07/18 02:39:40;;;;;;;2.33;2.13;;;13.90;99.90;;;;;;5065595;28;20215;-51
2022/07/18 02:42:07;;;;;;;2.20;2.00;;;13.90;99.90;;;;;;5062367;28;20256;-52
2022/07/18 02:44:34;;;;;;;2.17;1.70;;;13.90;99.90;;;;;;5065861;28;20251;-54
2022/07/18 02:47:03;;;;;;;2.60;1.63;;;14.00;99.90;;;;;;5053441;28;20969;-52
2022/07/18 02:49:31;;;;;;;2.37;2.00;;;14.00;99.90;;;;;;5065654;28;20206;-54
2022/07/18 02:52:00;;;;;;;2.10;1.87;;;14.10;99.90;;;;;;5044979;28;20260;-53
2022/07/18 02:54:28;;;;;;;3.00;1.80;;;14.00;99.90;;;;;;5065088;28;20215;-52
2022/07/18 02:56:56;;;;;;;2.57;1.80;;;14.00;99.90;;;;;;5062628;28;20223;-54
2022/07/18 02:59:23;;;;;;;2.70;1.90;;;14.00;99.90;;;;;;5065361;28;20201;-53
2022/07/18 03:01:50;;;;;;;2.00;1.80;;;14.10;99.90;;;;;;5060752;28;20202;-54
2022/07/18 03:04:20;;;;;;;2.40;2.20;;;14.00;99.90;;;;;;5060545;28;20277;-53
2022/07/18 03:06:47;;;;;;;2.20;2.00;;;14.00;99.90;;;;;;5047542;28;20226;-49
2022/07/18 03:09:15;;;;;;;3.67;1.63;;;14.00;99.90;;;;;;5063347;28;20198;-51
2022/07/18 03:11:42;;;;;;;2.00;1.73;;;14.00;99.90;;;;;;5064959;28;20203;-49
2022/07/18 03:14:09;;;;;;;2.07;1.87;;;13.90;99.90;;;;;;5061764;28;20256;-52
2022/07/18 03:16:37;;;;;;;3.10;2.20;;;13.90;99.90;;;;;;5065324;28;20631;-51
2022/07/18 03:19:04;;;;;;;2.20;2.00;;;13.90;99.90;;;;;;5054074;28;20204;-51
2022/07/18 03:21:32;;;;;;;2.20;2.00;;;13.90;99.90;;;;;;5049430;28;20695;-50
2022/07/18 03:23:59;;;;;;;3.70;2.10;;;13.90;99.90;;;;;;5060465;28;20194;-55
2022/07/18 03:26:26;;;;;;;2.27;2.07;;;13.90;99.90;;;;;;5064966;28;20226;-53
2022/07/18 03:28:53;;;;;;;2.20;2.00;;;13.90;99.90;;;;;;5062320;28;20190;-52
2022/07/18 03:31:20;;;;;;;2.43;2.23;;;13.80;99.90;;;;;;5064561;28;20210;-53
2022/07/18 03:33:47;;;;;;;2.30;2.00;;;13.80;99.90;;;;;;5061914;28;20202;-54
2022/07/18 03:36:15;;;;;;;2.40;2.07;;;13.80;99.90;;;;;;5041793;28;20218;-55
2022/07/18 03:38:43;;;;;;;3.60;2.47;;;13.80;99.90;;;;;;5063394;28;20666;-51
2022/07/18 03:41:11;;;;;;;4.20;2.43;;;13.80;99.90;;;;;;5060625;28;20238;-52
2022/07/18 03:43:38;;;;;;;3.57;2.27;;;13.80;99.90;;;;;;5064546;28;20202;-53
2022/07/18 03:46:05;;;;;;;2.93;2.20;;;13.70;99.90;;;;;;5060242;28;20205;-53
2022/07/18 03:48:32;;;;;;;3.03;2.63;;;13.70;99.90;;;;;;5064685;28;20567;-52
2022/07/18 03:50:59;;;;;;;2.13;1.97;;;13.70;99.90;;;;;;5053597;28;20214;-53
2022/07/18 03:53:26;;;;;;;3.00;2.27;;;13.80;99.90;;;;;;5047810;28;20298;-49
2022/07/18 03:55:55;;;;;;;2.57;2.27;;;13.80;99.90;;;;;;5061399;28;20309;-54
2022/07/18 03:58:22;;;;;;;2.30;2.10;;;13.90;99.90;;;;;;5064165;28;20312;-52
2022/07/18 04:00:49;;;;;;;3.17;2.70;;;13.90;99.90;;;;;;5062778;28;20210;-55
2022/07/18 04:03:18;;;;;;;2.77;2.57;;;13.90;99.90;;;;;;5062246;28;20191;-48
2022/07/18 04:05:45;;;;;;;2.60;2.10;;;14.00;99.90;;;;;;5062318;28;20629;-53
2022/07/18 04:08:12;;;;;;;2.40;2.20;;;14.00;99.90;;;;;;5039943;28;20206;-52
2022/07/18 04:10:40;;;;;;;2.60;2.40;;;14.00;99.90;;;;;;5064247;28;20225;-49
2022/07/18 04:13:09;;;;;;;2.63;2.42;;;14.00;99.90;;;;;;5059432;28;21199;-50
2022/07/18 04:15:37;;;;;;;2.70;2.50;;;14.40;99.90;;;;;;5062615;28;20438;-55
2022/07/18 04:18:04;;;;;;;2.60;2.30;;;14.70;99.90;;;;;;5059057;28;20429;-50
2022/07/18 04:20:32;;;;;;;4.13;2.47;;;14.90;99.90;;;;;;5063866;28;20194;-54
2022/07/18 04:23:01;;;;;;;2.60;2.40;;;14.60;99.90;;;;;;5042021;28;20267;-54
2022/07/18 04:25:33;;;;;;;2.93;2.67;;;14.50;99.90;;;;;;5063339;28;20211;-52
2022/07/18 04:28:00;;;;;;;2.60;2.40;;;14.40;99.90;;;;;;5060148;28;20205;-54
2022/07/18 04:30:29;;;;;;;3.20;2.97;;;14.30;99.90;;;;;;5064075;28;20195;-51
2022/07/18 04:32:57;;;;;;;3.63;3.00;;;14.30;99.90;;;;;;5060613;28;20207;-53
2022/07/18 04:35:24;;;;;;;3.03;2.50;;;14.30;99.90;;;;;;5062833;28;20234;-48
2022/07/18 04:37:52;;;;;;;3.20;2.90;;;14.30;99.90;;;;;;5050445;28;20203;-52
2022/07/18 04:40:19;;;;;;;5.07;2.63;;;14.30;99.90;;;;;;5058032;28;20210;-50
2022/07/18 04:42:47;;;;;;;2.90;2.70;;;14.30;99.90;;;;;;5062307;28;20556;-55
2022/07/18 04:45:15;;;;;;;3.57;2.47;;;14.30;99.90;;;;;;5060711;28;20260;-51
2022/07/18 04:47:43;;;;;;;3.50;2.87;;;14.30;99.90;;;;;;5062904;28;20195;-52
2022/07/18 04:50:10;;;;;;;4.77;3.00;;;14.30;99.90;;;;;;5060156;28;20256;-49
2022/07/18 04:52:39;;;;;;;3.17;2.87;;;14.40;99.90;;;;;;5062641;28;20978;-55
2022/07/18 04:55:08;;;;;;;3.93;2.70;;;14.50;99.90;;;;;;5041927;28;20214;-50
2022/07/18 04:57:35;;;;;;;3.07;2.77;;;14.50;99.90;;;;;;5063465;28;20195;-50
2022/07/18 05:00:03;;;;;;;3.47;2.60;;;14.60;99.90;;;;;;5059180;28;20282;-51
2022/07/18 05:02:30;;;;;;;4.63;3.03;;;14.70;99.90;;;;;;5063475;28;20205;-53
2022/07/18 05:04:59;;;;;;;5.10;2.90;;;14.70;99.90;;;;;;5059014;28;20211;-51
2022/07/18 05:07:26;;;;;;;3.67;3.20;;;14.80;99.90;;;;;;5063364;28;20195;-52
2022/07/18 05:09:53;;;;;;;5.53;3.17;;;14.90;99.90;;;;;;5043322;28;20199;-54
2022/07/18 05:12:23;;;;;;;3.53;3.20;;;15.00;99.90;;;;;;5062273;28;20281;-50
2022/07/18 05:14:50;;;;;;;4.33;3.50;;;15.10;99.90;;;;;;5060075;28;20203;-55
2022/07/18 05:17:17;;;;;;;4.77;3.77;;;15.20;99.90;;;;;;5061719;28;20837;-50
2022/07/18 05:19:45;;;;;;;4.17;3.73;;;15.20;99.90;;;;;;5062025;28;20209;-52
2022/07/18 05:22:13;;;;;;;5.60;3.40;;;15.30;99.90;;;;;;5060747;28;20295;-51
2022/07/18 05:24:40;;;;;;;5.23;4.17;;;15.40;99.90;;;;;;5061896;28;20867;-50
2022/07/18 05:27:06;;;;;;;4.40;3.60;;;15.50;99.90;;;;;;5044723;28;20217;-50
2022/07/18 05:29:34;;;;;;;4.37;3.63;;;15.50;99.90;;;;;;5062927;28;20208;-49
2022/07/18 05:32:02;;;;;;;5.77;3.67;;;15.60;99.90;;;;;;5059275;28;20252;-49
2022/07/18 05:34:29;;;;;;;3.43;3.13;;;15.60;99.90;;;;;;5062363;28;20202;-53
2022/07/18 05:36:56;;;;;;;3.83;3.53;;;15.60;99.90;;;;;;5059619;28;20687;-53
2022/07/18 05:39:24;;;;;;;5.13;3.77;;;15.70;99.90;;;;;;5062722;28;20198;-49
2022/07/18 05:41:52;;;;;;;7.37;3.73;;;15.70;99.90;;;;;;5042947;28;20213;-53
2022/07/18 05:44:19;;;;;;;4.17;3.77;;;15.80;99.90;;;;;;5061454;28;20198;-52
2022/07/18 05:46:46;;;;;;;5.73;3.37;;;15.80;99.90;;;;;;5061189;28;20267;-50
2022/07/18 05:49:15;;;;;;;4.57;3.60;;;15.80;99.90;;;;;;5061007;28;20320;-49
2022/07/18 05:51:42;;;;;;;7.67;3.93;;;15.90;99.90;;;;;;5062178;28;20191;-53
2022/07/18 05:54:09;;;;;;;6.73;3.93;;;16.00;99.90;;;;;;5059393;28;20195;-49
2022/07/18 05:56:37;;;;;;;4.90;3.97;;;16.00;99.90;;;;;;5045357;28;20738;-49
2022/07/18 05:59:05;;;;;;;8.43;4.20;;;16.10;99.90;;;;;;5052057;28;20209;-48
2022/07/18 06:01:32;;;;;;;4.57;3.83;;;16.10;99.90;;;;;;5065175;28;20623;-50
2022/07/18 06:03:59;;;;;;;3.57;3.30;;;16.20;99.90;;;;;;5062451;28;20202;-50
2022/07/18 06:06:26;;;;;;;4.90;3.63;;;16.30;99.90;;;;;;5066254;28;20215;-51
2022/07/18 06:08:53;;;;;;;6.60;4.10;;;16.30;99.90;;;;;;5063871;28;20584;-55
2022/07/18 06:11:20;;;;;;;4.13;3.53;;;16.40;99.90;;;;;;5065626;28;20206;-54
2022/07/18 06:13:48;;;;;;;6.30;4.53;;;16.50;99.90;;;;;;5047100;28;20301;-51
2022/07/18 06:16:15;;;;;;;6.40;4.20;;;16.60;99.90;;;;;;5058410;28;20225;-50
2022/07/18 06:18:42;;;;;;;4.63;3.97;;;16.60;99.90;;;;;;5066230;28;20198;-52
2022/07/18 06:21:08;;;;;;;8.57;3.97;;;16.70;99.90;;;;;;5063114;28;20279;-50
2022/07/18 06:23:36;;;;;;;5.53;3.70;;;16.80;99.90;;;;;;5059330;28;20232;-51
2022/07/18 06:26:04;;;;;;;6.03;3.60;;;16.90;99.90;;;;;;5055933;28;20213;-50
2022/07/18 06:28:30;;;;;;;5.67;4.20;;;16.90;99.90;;;;;;5049507;28;20218;-48
2022/07/18 06:30:59;;;;;;;5.80;4.00;;;17.00;99.90;;;;;;5062424;28;20198;-55
2022/07/18 06:33:26;;;;;;;5.40;3.77;;;17.10;99.90;;;;;;5065729;28;20195;-48
2022/07/18 06:35:53;;;;;;;5.23;3.83;;;17.10;99.90;;;;;;5063066;28;20344;-54
2022/07/18 06:38:20;;;;;;;4.37;3.97;;;17.20;99.90;;;;;;5063950;28;20245;-52
2022/07/18 06:40:47;;;;;;;9.30;4.30;;;17.30;99.90;;;;;;5064393;28;20600;-52
2022/07/18 06:43:19;;;;;;;5.80;4.33;;;17.40;99.90;;;;;;5046339;28;20217;-51
2022/07/18 06:45:47;;;;;;;4.53;4.03;;;17.50;99.90;;;;;;5064148;28;20276;-55
2022/07/18 06:48:16;;;;;;;4.80;4.17;;;17.50;99.90;;;;;;5063297;28;20187;-48
2022/07/18 06:50:43;;;;;;;6.10;4.00;;;17.60;99.90;;;;;;5062323;28;20573;-51
2022/07/18 06:53:11;;;;;;;6.37;4.37;;;17.70;99.90;;;;;;5055949;28;20195;-54
2022/07/18 06:55:38;;;;;;;4.97;4.03;;;17.80;99.90;;;;;;5065756;28;20225;-49
2022/07/18 06:58:05;;;;;;;7.30;4.37;;;17.90;99.90;;;;;;5062080;28;20225;-49
2022/07/18 07:00:32;;;;;;;8.83;3.80;;;18.00;99.90;;;;;;5048351;28;20203;-53
2022/07/18 07:02:59;;;;;;;5.67;4.17;;;18.10;99.90;;;;;;5060467;28;20198;-53
2022/07/18 07:05:28;;;;;;;6.67;4.13;;;18.10;99.90;;;;;;5064732;28;20218;-51
2022/07/18 07:07:55;;;;;;;6.20;3.87;;;18.20;99.90;;;;;;5062515;28;20294;-56
2022/07/18 07:10:21;;;;;;;5.67;3.80;;;18.40;99.90;;;;;;5065105;28;20198;-52
2022/07/18 07:12:50;;;;;;;5.53;4.37;;;18.50;99.90;;;;;;5063652;28;20199;-48
2022/07/18 07:15:20;;;;;;;8.33;4.63;;;18.70;99.90;;;;;;5046285;28;20276;-51
2022/07/18 07:17:48;;;;;;;6.77;4.40;;;18.80;99.90;;;;;;5063341;28;20618;-53
2022/07/18 07:20:17;;;;;;;6.37;4.13;;;18.90;99.90;;;;;;5063095;28;20194;-54
2022/07/18 07:22:47;;;;;;;10.30;4.77;;;19.10;99.90;;;;;;5064297;28;20198;-54
2022/07/18 07:25:15;;;;;;;5.00;4.50;;;19.20;99.90;;;;;;5062745;28;20206;-54
2022/07/18 07:27:42;;;;;;;7.87;5.37;;;19.30;99.90;;;;;;5064797;28;20205;-55
2022/07/18 07:30:11;;;;;;;10.40;4.53;;;19.50;99.90;;;;;;5044719;28;20376;-54
2022/07/18 07:32:40;;;;;;;7.27;4.50;;;19.60;99.90;;;;;;5064763;28;20277;-54
2022/07/18 07:35:11;;;;;;;4.70;4.30;;;19.90;99.90;;;;;;5059889;28;20357;-50
2022/07/18 07:37:38;;;;;;;8.60;5.00;;;20.10;99.90;;;;;;5061745;28;20215;-52
2022/07/18 07:40:08;;;;;;;6.47;4.47;;;20.20;99.90;;;;;;5060997;28;20199;-54
2022/07/18 07:42:35;;;;;;;6.50;4.93;;;20.20;99.90;;;;;;5064821;28;20199;-50
2022/07/18 07:45:02;;;;;;;7.70;5.17;;;20.30;99.90;;;;;;5042491;28;20234;-52
2022/07/18 07:47:29;;;;;;;7.17;5.03;;;20.30;99.90;;;;;;5064730;28;20191;-50
2022/07/18 07:49:56;;;;;;;7.47;4.70;;;20.50;99.90;;;;;;5061218;28;20195;-53
2022/07/18 07:52:24;;;;;;;6.53;4.93;;;20.70;99.90;;;;;;5064781;28;20659;-52
2022/07/18 07:54:51;;;;;;;6.70;5.30;;;20.80;99.90;;;;;;5061924;28;20675;-55
2022/07/18 07:57:19;;;;;;;7.53;5.10;;;20.90;99.90;;;;;;5056788;28;20238;-52
2022/07/18 07:59:46;;;;;;;6.13;5.30;;;21.00;99.90;;;;;;5052663;28;20203;-53
2022/07/18 08:02:14;;;;;;;7.43;4.70;;;21.00;99.90;;;;;;5052897;28;20190;-50
2022/07/18 08:04:41;;;;;;;8.80;5.43;;;21.00;99.90;;;;;;5061067;28;20209;-55
2022/07/18 08:07:09;;;;;;;6.73;4.90;;;21.00;99.90;;;;;;5054745;28;20265;-52
2022/07/18 08:09:35;;;;;;;7.33;5.10;;;21.10;99.90;;;;;;5057950;28;20203;-48
2022/07/18 08:12:02;;;;;;;8.67;5.00;;;21.10;99.90;;;;;;5053750;28;20197;-52
2022/07/18 08:14:32;;;;;;;7.27;5.23;;;21.20;99.90;;;;;;5063807;28;20206;-50
2022/07/18 08:16:59;;;;;;;6.97;4.93;;;21.30;99.90;;;;;;5042903;28;20219;-52
2022/07/18 08:19:26;;;;;;;6.47;5.33;;;21.40;99.90;;;;;;5064148;28;20202;-50
2022/07/18 08:21:53;;;;;;;6.50;5.03;;;21.60;99.90;;;;;;5061234;28;20652;-53
2022/07/18 08:24:20;;;;;;;7.73;5.30;;;21.80;99.50;;;;;;5062343;28;20191;-55
2022/07/18 08:26:46;;;;;;;7.27;5.40;;;21.90;98.90;;;;;;5062721;28;20272;-55
2022/07/18 08:29:13;;;;;;;7.50;5.97;;;22.00;98.30;;;;;;5061590;28;20924;-49
2022/07/18 08:31:42;;;;;;;9.77;5.53;;;22.10;98.40;;;;;;5062451;28;20198;-55
2022/07/18 08:34:08;;;;;;;7.60;5.23;;;22.20;98.00;;;;;;5047198;28;20197;-55
2022/07/18 08:36:35;;;;;;;9.00;5.07;;;22.30;97.10;;;;;;5063517;28;20237;-52
2022/07/18 08:39:03;;;;;;;9.03;5.20;;;22.40;97.20;;;;;;5059932;28;20197;-51
2022/07/18 08:41:30;;;;;;;5.65;4.60;;;22.50;96.90;;;;;;5063773;28;20202;-53
2022/07/18 08:43:57;;;;;;;5.77;5.17;;;22.50;96.10;;;;;;5059649;28;20198;-53
2022/07/18 08:46:24;;;;;;;9.82;5.28;;;22.50;95.70;;;;;;5063572;28;20218;-53
2022/07/18 08:48:55;;;;;;;5.63;4.95;;;22.60;95.60;;;;;;5044058;28;20211;-53
2022/07/18 08:51:23;;;;;;;4.97;4.47;;;22.80;95.30;;;;;;5062651;28;20206;-54
2022/07/18 08:53:51;;;;;;;5.68;4.20;;;22.90;94.60;;;;;;5061228;28;20305;-53
2022/07/18 08:56:18;;;;;;;7.63;4.88;;;22.90;94.90;;;;;;5062296;28;20226;-53
2022/07/18 08:58:45;;;;;;;6.30;5.40;;;22.90;94.70;;;;;;5062056;28;20526;-54
2022/07/18 09:01:12;;;;;;;5.10;4.57;;;22.90;94.30;;;;;;5060882;28;20274;-47
2022/07/18 09:03:39;;;;;;;12.93;5.10;;;22.90;93.60;;;;;;5063106;28;20221;-49
2022/07/18 09:06:09;;;;;;;7.47;4.80;;;22.90;93.70;;;;;;5043639;28;20968;-47
2022/07/18 09:08:37;;;;;;;6.75;4.97;;;23.00;94.00;;;;;;5063381;28;20199;-50
2022/07/18 09:11:09;;;;;;;8.18;5.47;;;23.10;93.50;;;;;;5059243;28;20191;-49
2022/07/18 09:13:40;;;;;;;8.27;5.13;;;23.20;92.70;;;;;;5063014;28;20551;-51
2022/07/18 09:16:09;;;;;;;8.82;4.97;;;23.20;92.40;;;;;;5059745;28;20217;-54
2022/07/18 09:18:38;;;;;;;7.47;5.07;;;23.30;92.90;;;;;;5056536;28;20799;-51
2022/07/18 09:21:09;;;;;;;7.47;5.53;;;23.40;92.50;;;;;;5043275;28;20191;-49
2022/07/18 09:23:38;;;;;;;6.60;5.00;;;23.50;92.30;;;;;;5059386;28;20722;-52
2022/07/18 09:26:05;;;;;;;6.75;4.53;;;23.40;92.00;;;;;;5059021;28;20221;-48
2022/07/18 09:28:47;;;;;;;5.72;5.00;;;23.50;91.90;;;;;;5063354;28;20540;-49
2022/07/18 09:31:20;;;;;;;5.50;4.95;;;23.50;91.50;;;;;;5060783;28;20265;-49
2022/07/18 09:33:53;;;;;;;6.47;4.97;;;23.60;90.90;;;;;;5053737;28;20207;-53
2022/07/18 09:36:22;;;;;;;5.50;4.35;;;23.50;91.50;;;;;;5060672;28;20579;-52
2022/07/18 09:38:49;;;;;;;6.50;4.72;;;23.60;91.20;;;;;;5065463;28;20203;-53
2022/07/18 09:41:16;;;;;;;6.47;4.82;;;23.70;91.30;;;;;;5065420;28;20945;-49
2022/07/18 09:43:43;;;;;;;6.22;4.00;;;23.80;91.10;;;;;;5065645;28;20256;-51
2022/07/18 09:46:10;;;;;;;6.25;4.03;;;23.80;90.60;;;;;;5096933;28;20924;-47
2022/07/18 09:48:37;;;;;;;6.07;3.53;;;23.90;90.20;;;;;;5067247;28;20202;-51
2022/07/18 09:51:06;;;;;;;6.07;4.32;;;24.00;89.40;;;;;;5045562;28;20205;-54
2022/07/18 09:53:37;;;;;;;5.60;4.20;;;24.00;89.80;;;;;;5066464;28;20609;-51
2022/07/18 09:56:06;;;;;;;5.90;3.85;;;24.00;88.10;;;;;;5062861;28;20221;-50
2022/07/18 09:58:34;;;;;;;4.05;3.60;;;24.10;87.40;;;;;;5066836;28;20663;-53
2022/07/18 10:01:03;;;;;;;4.95;3.88;;;24.10;86.60;;;;;;5062751;28;20186;-50
2022/07/18 10:03:30;;;;;;;4.32;3.65;;;24.10;87.30;;;;;;5066318;28;20206;-49
2022/07/18 10:05:59;;;;;;;3.78;3.45;;;24.10;88.00;;;;;;5045774;28;20218;-50
2022/07/18 10:08:28;;;;;;;3.95;3.33;;;24.10;88.30;;;;;;5066359;28;20198;-51
2022/07/18 10:10:59;;;;;;;6.72;3.60;;;24.20;88.20;;;;;;5063739;28;20203;-54
2022/07/18 10:13:27;;;;;;;3.88;3.45;;;24.30;87.30;;;;;;5065885;28;20198;-47
2022/07/18 10:15:54;;;;;;;5.35;3.50;;;24.40;87.40;;;;;;5062830;28;20691;-54
2022/07/18 10:18:23;;;;;;;5.30;3.20;;;24.50;87.30;;;;;;5065589;28;20222;-49
2022/07/18 10:20:55;;;;;;;5.32;3.50;;;24.60;88.90;;;;;;5046716;28;20217;-50
2022/07/18 10:23:25;;;;;;;4.13;3.72;;;24.60;87.40;;;;;;5065237;28;20268;-50
2022/07/18 10:26:13;;;;;;;5.15;4.03;;;24.60;87.00;;;;;;5063934;28;20226;-51
2022/07/18 10:29:15;;;;;;;4.25;3.33;;;24.80;87.20;;;;;;5066091;28;20203;-54
2022/07/18 10:32:01;;;;;;;4.80;3.22;;;24.90;86.20;;;;;;5065807;28;20418;-51
2022/07/18 10:34:32;;;;;;;4.75;3.35;;;25.00;86.40;;;;;;5065942;28;20194;-51
2022/07/18 10:37:09;;;;;;;5.18;3.50;;;25.20;85.80;;;;;;5044374;28;20222;-51
2022/07/18 10:39:38;;;;;;;4.47;3.45;;;25.30;84.10;;;;;;5066069;28;20568;-53
2022/07/18 10:42:18;;;;;;;4.00;3.45;;;25.40;83.70;;;;;;5061963;28;20202;-51
2022/07/18 10:44:45;;;;;;;3.80;3.42;;;25.50;80.70;;;;;;5063916;28;20209;-53
2022/07/18 10:47:17;;;;;;;5.00;4.07;;;25.30;82.10;;;;;;5063048;28;20189;-53
2022/07/18 10:50:03;;;;;;;4.13;3.78;;;25.30;82.80;;;;;;5065094;28;20203;-49
2022/07/18 10:52:57;;;;;;;4.70;3.90;;;25.50;82.10;;;;;;5048231;28;20249;-52
2022/07/18 10:55:30;;;;;;;5.28;3.53;;;25.60;81.90;;;;;;5063996;28;20222;-48
2022/07/18 10:58:18;;;;;;;3.90;3.55;;;25.60;80.00;;;;;;5062106;28;20234;-51
2022/07/18 11:00:50;;;;;;;5.20;3.58;;;25.60;79.60;;;;;;5063398;28;20720;-52
2022/07/18 11:03:19;;;;;;;7.28;3.90;;;25.70;79.00;;;;;;5063582;28;20927;-54
2022/07/18 11:05:50;;;;;;;6.35;4.05;;;25.80;78.60;;;;;;5058016;28;20594;-49
2022/07/18 11:08:24;;;;;;;5.28;3.92;;;25.90;77.40;;;;;;5057326;28;20404;-54
2022/07/18 11:11:08;;;;;;;4.20;3.80;;;25.80;77.20;;;;;;5063332;28;20204;-52
2022/07/18 11:13:38;;;;;;;6.90;4.60;;;25.90;76.50;;;;;;5064640;28;20190;-47
2022/07/18 11:16:09;;;;;;;6.75;4.55;;;25.90;75.80;;;;;;5061466;28;20241;-48
2022/07/18 11:19:21;;;;;;;5.00;4.15;;;26.00;75.80;;;;;;5065342;28;20264;-52
2022/07/18 11:21:57;;;;;;;4.38;3.75;;;26.10;75.00;;;;;;5055835;28;20283;-54
2022/07/18 11:24:23;;;;;;;5.90;4.63;;;26.10;72.70;;;;;;5063601;28;20201;-50
2022/07/18 11:26:51;;;;;;;5.03;4.32;;;26.10;73.60;;;;;;5061490;28;20300;-53
2022/07/18 11:29:20;;;;;;;4.65;4.07;;;26.20;72.30;;;;;;5063363;28;20198;-51
2022/07/18 11:31:48;;;;;;;6.07;4.25;;;26.20;71.10;;;;;;5062805;28;20671;-50
2022/07/18 11:34:16;;;;;;;7.07;3.85;;;26.30;72.00;;;;;;5056491;28;20205;-50
2022/07/18 11:36:45;;;;;;;5.53;4.10;;;26.40;72.20;;;;;;5057605;28;20276;-51
2022/07/18 11:39:13;;;;;;;6.38;4.38;;;26.40;72.10;;;;;;5038884;28;20260;-51
2022/07/18 11:41:42;;;;;;;4.57;4.03;;;26.50;72.10;;;;;;5060842;28;20203;-51
2022/07/18 11:44:18;;;;;;;5.55;3.72;;;26.50;71.80;;;;;;5054926;28;20934;-51
2022/07/18 11:46:47;;;;;;;5.85;4.15;;;26.60;71.10;;;;;;5063678;28;20222;-51
2022/07/18 11:49:14;;;;;;;6.57;3.90;;;26.70;69.90;;;;;;5062567;28;20198;-50
2022/07/18 11:51:43;;;;;;;6.10;3.75;;;26.70;70.00;;;;;;5064343;28;20221;-50
2022/07/18 11:54:11;;;;;;;7.80;4.22;;;26.80;70.00;;;;;;5044079;28;20195;-53
2022/07/18 11:56:50;;;;;;;4.88;3.92;;;26.80;69.70;;;;;;5064239;28;20218;-50
2022/07/18 11:59:17;;;;;;;4.45;4.03;;;26.90;69.10;;;;;;5062402;28;20186;-50
2022/07/18 12:02:08;;;;;;;5.05;4.15;;;26.90;67.80;;;;;;5060829;28;20202;-52
2022/07/18 12:04:35;;;;;;;4.82;4.40;;;27.00;66.30;;;;;;5064153;28;20285;-52
2022/07/18 12:07:16;;;;;;;5.07;4.63;;;27.00;66.20;;;;;;5059986;28;20234;-49
2022/07/18 12:09:44;;;;;;;4.80;4.18;;;27.00;65.60;;;;;;5045712;28;20286;-55
2022/07/18 12:12:12;;;;;;;4.68;4.22;;;27.10;64.90;;;;;;5060698;28;20269;-51
2022/07/18 12:14:40;;;;;;;4.82;4.43;;;27.10;63.80;;;;;;5063556;28;20203;-53
2022/07/18 12:17:08;;;;;;;4.68;4.28;;;27.10;63.50;;;;;;5060777;28;20899;-52
2022/07/18 12:19:37;;;;;;;4.20;3.90;;;27.20;64.30;;;;;;5064325;28;20601;-50
2022/07/18 12:22:09;;;;;;;4.53;3.70;;;27.20;64.30;;;;;;5059742;28;20195;-53
2022/07/18 12:24:39;;;;;;;5.55;4.00;;;27.20;63.50;;;;;;5046724;28;20628;-51
2022/07/18 12:27:19;;;;;;;4.25;3.67;;;27.20;64.10;;;;;;5055858;28;20483;-54
2022/07/18 12:30:07;;;;;;;5.93;3.97;;;27.20;66.60;;;;;;5062952;28;20203;-51
2022/07/18 12:32:44;;;;;;;4.65;4.25;;;27.30;62.50;;;;;;5096714;28;20206;-50
2022/07/18 12:35:14;;;;;;;4.35;3.95;;;27.30;62.20;;;;;;5060792;28;20269;-50
2022/07/18 12:37:41;;;;;;;5.30;3.83;;;27.30;62.90;;;;;;5063204;28;20207;-54
2022/07/18 12:40:10;;;;;;;3.63;3.33;;;27.20;62.30;;;;;;5044077;28;21998;-55
2022/07/18 12:42:39;;;;;;;4.05;3.35;;;27.30;63.30;;;;;;5063147;28;20209;-53
2022/07/18 12:45:07;;;;;;;4.30;3.40;;;27.40;63.80;;;;;;5059456;28;20900;-51
2022/07/18 12:47:34;;;;;;;4.65;3.90;;;27.50;64.00;;;;;;5063890;28;20203;-49
2022/07/18 12:50:05;;;;;;;6.38;4.47;;;27.60;62.50;;;;;;5059826;28;20195;-54
2022/07/18 12:52:33;;;;;;;5.03;4.32;;;27.80;62.60;;;;;;5063409;28;20705;-53
2022/07/18 12:55:00;;;;;;;4.25;3.13;;;27.90;61.60;;;;;;5041177;28;20226;-53
2022/07/18 12:57:27;;;;;;;3.55;3.20;;;28.00;63.20;;;;;;5063197;28;20703;-53